sensor_id;sensor_type;location;lat;lon;timestamp;P1;durP1;ratioP1;P2;durP2;ratioP2
11907;SDS011;6014;47.690;9.130;2023-07-08T00:00:15;11.57;;;4.93;;
11907;SDS011;6014;47.690;9.130;2023-07-08T00:02:45;9.25;;;4.28;;
11907;SDS011;6014;47.690;9.130;2023-07-08T00:05:14;9.63;;;4.55;;
11907;SDS011;6014;47.690;9.130;2023-07-08T00:07:44;8.38;;;4.05;;
11907;SDS011;6014;47.690;9.130;2023-07-08T00:10:14;10.30;;;4.82;;
11907;SDS011;6014;47.690;9.130;2023-07-08T00:12:44;9.20;;;4.35;;
11907;SDS011;6014;47.690;9.130;2023-07-08T00:15:16;11.65;;;4.53;;
11907;SDS011;6014;47.690;9.130;2023-07-08T00:17:44;12.03;;;5.17;;
11907;SDS011;6014;47.690;9.130;2023-07-08T00:20:14;9.37;;;4.73;;
11907;SDS011;6014;47.690;9.130;2023-07-08T00:22:45;11.27;;;5.83;;
11907;SDS011;6014;47.690;9.130;2023-07-08T00:25:16;9.88;;;4.60;;
11907;SDS011;6014;47.690;9.130;2023-07-08T00:27:46;10.07;;;5.20;;
11907;SDS011;6014;47.690;9.130;2023-07-08T00:30:20;9.60;;;4.03;;
11907;SDS011;6014;47.690;9.130;2023-07-08T00:33:02;9.67;;;4.47;;
11907;SDS011;6014;47.690;9.130;2023-07-08T00:35:31;9.00;;;4.37;;
11907;SDS011;6014;47.690;9.130;2023-07-08T00:38:01;9.40;;;4.43;;
11907;SDS011;6014;47.690;9.130;2023-07-08T00:40:38;7.13;;;3.88;;
11907;SDS011;6014;47.690;9.130;2023-07-08T00:43:17;9.80;;;3.80;;
11907;SDS011;6014;47.690;9.130;2023-07-08T00:45:51;9.03;;;3.53;;
11907;SDS011;6014;47.690;9.130;2023-07-08T00:52:23;6.57;;;3.10;;
11907;SDS011;6014;47.690;9.130;2023-07-08T00:54:53;7.73;;;3.60;;
11907;SDS011;6014;47.690;9.130;2023-07-08T00:57:23;8.30;;;3.97;;
11907;SDS011;6014;47.690;9.130;2023-07-08T00:59:55;8.77;;;3.78;;
11907;SDS011;6014;47.690;9.130;2023-07-08T01:02:27;7.47;;;3.58;;
11907;SDS011;6014;47.690;9.130;2023-07-08T01:04:58;9.05;;;3.80;;
11907;SDS011;6014;47.690;9.130;2023-07-08T01:07:32;10.82;;;4.63;;
11907;SDS011;6014;47.690;9.130;2023-07-08T01:10:02;14.68;;;4.15;;
11907;SDS011;6014;47.690;9.130;2023-07-08T01:12:34;11.40;;;3.78;;
11907;SDS011;6014;47.690;9.130;2023-07-08T01:15:06;10.02;;;4.32;;
11907;SDS011;6014;47.690;9.130;2023-07-08T01:17:37;11.70;;;4.15;;
11907;SDS011;6014;47.690;9.130;2023-07-08T01:20:07;8.30;;;3.65;;
11907;SDS011;6014;47.690;9.130;2023-07-08T01:22:41;9.98;;;4.45;;
11907;SDS011;6014;47.690;9.130;2023-07-08T01:25:10;10.02;;;4.78;;
11907;SDS011;6014;47.690;9.130;2023-07-08T01:27:40;8.45;;;4.15;;
11907;SDS011;6014;47.690;9.130;2023-07-08T01:30:19;9.43;;;4.28;;
11907;SDS011;6014;47.690;9.130;2023-07-08T01:32:49;10.43;;;4.05;;
11907;SDS011;6014;47.690;9.130;2023-07-08T01:35:19;9.77;;;4.47;;
11907;SDS011;6014;47.690;9.130;2023-07-08T01:40:50;10.27;;;4.40;;
11907;SDS011;6014;47.690;9.130;2023-07-08T01:43:20;9.27;;;4.38;;
11907;SDS011;6014;47.690;9.130;2023-07-08T01:45:49;9.63;;;4.32;;
11907;SDS011;6014;47.690;9.130;2023-07-08T01:48:19;11.30;;;4.75;;
11907;SDS011;6014;47.690;9.130;2023-07-08T01:50:50;7.43;;;3.28;;
11907;SDS011;6014;47.690;9.130;2023-07-08T01:53:29;11.75;;;3.72;;
11907;SDS011;6014;47.690;9.130;2023-07-08T01:56:08;8.82;;;4.28;;
11907;SDS011;6014;47.690;9.130;2023-07-08T01:58:37;9.77;;;3.93;;
11907;SDS011;6014;47.690;9.130;2023-07-08T02:01:07;9.53;;;4.40;;
11907;SDS011;6014;47.690;9.130;2023-07-08T02:03:35;7.97;;;4.10;;
11907;SDS011;6014;47.690;9.130;2023-07-08T02:06:04;10.80;;;3.92;;
11907;SDS011;6014;47.690;9.130;2023-07-08T02:08:35;9.23;;;3.70;;
11907;SDS011;6014;47.690;9.130;2023-07-08T02:11:04;9.07;;;3.60;;
11907;SDS011;6014;47.690;9.130;2023-07-08T02:13:32;7.85;;;3.60;;
11907;SDS011;6014;47.690;9.130;2023-07-08T02:16:01;7.30;;;3.20;;
11907;SDS011;6014;47.690;9.130;2023-07-08T02:18:29;23.70;;;4.03;;
11907;SDS011;6014;47.690;9.130;2023-07-08T02:20:58;8.35;;;4.05;;
11907;SDS011;6014;47.690;9.130;2023-07-08T02:23:27;7.00;;;3.23;;
11907;SDS011;6014;47.690;9.130;2023-07-08T02:25:57;10.33;;;3.87;;
11907;SDS011;6014;47.690;9.130;2023-07-08T02:28:35;8.80;;;4.20;;
11907;SDS011;6014;47.690;9.130;2023-07-08T02:31:03;8.15;;;4.50;;
11907;SDS011;6014;47.690;9.130;2023-07-08T02:33:32;6.37;;;3.17;;
11907;SDS011;6014;47.690;9.130;2023-07-08T02:36:01;7.57;;;3.10;;
11907;SDS011;6014;47.690;9.130;2023-07-08T02:38:29;9.98;;;3.70;;
11907;SDS011;6014;47.690;9.130;2023-07-08T02:40:59;9.35;;;3.42;;
11907;SDS011;6014;47.690;9.130;2023-07-08T02:43:28;9.40;;;3.63;;
11907;SDS011;6014;47.690;9.130;2023-07-08T02:45:57;9.60;;;3.90;;
11907;SDS011;6014;47.690;9.130;2023-07-08T02:48:25;7.10;;;3.53;;
11907;SDS011;6014;47.690;9.130;2023-07-08T02:50:58;6.97;;;3.23;;
11907;SDS011;6014;47.690;9.130;2023-07-08T02:53:27;8.40;;;3.10;;
11907;SDS011;6014;47.690;9.130;2023-07-08T02:55:56;8.98;;;3.15;;
11907;SDS011;6014;47.690;9.130;2023-07-08T02:58:26;7.70;;;3.35;;
11907;SDS011;6014;47.690;9.130;2023-07-08T03:00:54;6.10;;;3.10;;
11907;SDS011;6014;47.690;9.130;2023-07-08T03:03:36;8.25;;;3.30;;
11907;SDS011;6014;47.690;9.130;2023-07-08T03:06:04;7.90;;;3.67;;
11907;SDS011;6014;47.690;9.130;2023-07-08T03:08:33;8.60;;;3.22;;
11907;SDS011;6014;47.690;9.130;2023-07-08T03:11:04;9.65;;;3.10;;
11907;SDS011;6014;47.690;9.130;2023-07-08T03:13:33;7.50;;;3.15;;
11907;SDS011;6014;47.690;9.130;2023-07-08T03:16:02;9.60;;;3.78;;
11907;SDS011;6014;47.690;9.130;2023-07-08T03:18:39;6.97;;;3.28;;
11907;SDS011;6014;47.690;9.130;2023-07-08T03:21:12;6.93;;;3.33;;
11907;SDS011;6014;47.690;9.130;2023-07-08T03:23:41;7.13;;;3.47;;
11907;SDS011;6014;47.690;9.130;2023-07-08T03:28:48;8.75;;;3.30;;
11907;SDS011;6014;47.690;9.130;2023-07-08T03:31:17;7.78;;;3.25;;
11907;SDS011;6014;47.690;9.130;2023-07-08T03:33:46;5.78;;;2.75;;
11907;SDS011;6014;47.690;9.130;2023-07-08T03:36:15;6.38;;;2.72;;
11907;SDS011;6014;47.690;9.130;2023-07-08T03:38:50;7.78;;;3.33;;
11907;SDS011;6014;47.690;9.130;2023-07-08T03:41:20;7.22;;;3.03;;
11907;SDS011;6014;47.690;9.130;2023-07-08T03:43:49;7.60;;;2.97;;
11907;SDS011;6014;47.690;9.130;2023-07-08T03:46:18;4.78;;;2.42;;
11907;SDS011;6014;47.690;9.130;2023-07-08T03:48:49;9.13;;;2.97;;
11907;SDS011;6014;47.690;9.130;2023-07-08T03:51:20;6.05;;;3.08;;
11907;SDS011;6014;47.690;9.130;2023-07-08T03:53:57;6.78;;;3.15;;
11907;SDS011;6014;47.690;9.130;2023-07-08T03:56:27;6.32;;;2.80;;
11907;SDS011;6014;47.690;9.130;2023-07-08T03:58:56;9.30;;;3.17;;
11907;SDS011;6014;47.690;9.130;2023-07-08T04:01:25;7.20;;;3.20;;
11907;SDS011;6014;47.690;9.130;2023-07-08T04:03:55;8.60;;;3.25;;
11907;SDS011;6014;47.690;9.130;2023-07-08T04:06:24;11.90;;;3.25;;
11907;SDS011;6014;47.690;9.130;2023-07-08T04:08:54;8.18;;;2.95;;
11907;SDS011;6014;47.690;9.130;2023-07-08T04:11:23;6.43;;;2.63;;
11907;SDS011;6014;47.690;9.130;2023-07-08T04:13:55;8.32;;;3.33;;
11907;SDS011;6014;47.690;9.130;2023-07-08T04:16:24;7.90;;;2.95;;
11907;SDS011;6014;47.690;9.130;2023-07-08T04:18:55;6.03;;;3.15;;
11907;SDS011;6014;47.690;9.130;2023-07-08T04:21:24;7.65;;;3.00;;
11907;SDS011;6014;47.690;9.130;2023-07-08T04:23:53;5.63;;;2.58;;
11907;SDS011;6014;47.690;9.130;2023-07-08T04:26:21;12.05;;;2.72;;
11907;SDS011;6014;47.690;9.130;2023-07-08T04:28:50;9.02;;;3.03;;
11907;SDS011;6014;47.690;9.130;2023-07-08T04:31:20;7.43;;;2.90;;
11907;SDS011;6014;47.690;9.130;2023-07-08T04:33:49;6.22;;;2.67;;
11907;SDS011;6014;47.690;9.130;2023-07-08T04:36:17;7.93;;;2.80;;
11907;SDS011;6014;47.690;9.130;2023-07-08T04:38:47;7.20;;;3.15;;
11907;SDS011;6014;47.690;9.130;2023-07-08T04:41:16;8.43;;;3.03;;
11907;SDS011;6014;47.690;9.130;2023-07-08T04:43:45;10.35;;;2.78;;
11907;SDS011;6014;47.690;9.130;2023-07-08T04:46:19;6.03;;;2.42;;
11907;SDS011;6014;47.690;9.130;2023-07-08T04:48:52;8.82;;;2.47;;
11907;SDS011;6014;47.690;9.130;2023-07-08T04:55:03;4.70;;;2.25;;
11907;SDS011;6014;47.690;9.130;2023-07-08T04:57:32;5.97;;;2.25;;
11907;SDS011;6014;47.690;9.130;2023-07-08T05:00:00;5.70;;;2.40;;
11907;SDS011;6014;47.690;9.130;2023-07-08T05:02:35;4.95;;;2.17;;
11907;SDS011;6014;47.690;9.130;2023-07-08T05:05:03;6.32;;;2.65;;
11907;SDS011;6014;47.690;9.130;2023-07-08T05:07:41;8.27;;;2.30;;
11907;SDS011;6014;47.690;9.130;2023-07-08T05:10:10;7.07;;;2.60;;
11907;SDS011;6014;47.690;9.130;2023-07-08T05:12:38;8.73;;;2.50;;
11907;SDS011;6014;47.690;9.130;2023-07-08T05:15:07;5.53;;;2.65;;
11907;SDS011;6014;47.690;9.130;2023-07-08T05:17:38;5.30;;;2.15;;
11907;SDS011;6014;47.690;9.130;2023-07-08T05:20:07;5.93;;;2.70;;
11907;SDS011;6014;47.690;9.130;2023-07-08T05:22:37;6.72;;;2.50;;
11907;SDS011;6014;47.690;9.130;2023-07-08T05:25:06;6.85;;;2.58;;
11907;SDS011;6014;47.690;9.130;2023-07-08T05:27:45;5.30;;;2.10;;
11907;SDS011;6014;47.690;9.130;2023-07-08T05:30:14;6.78;;;2.65;;
11907;SDS011;6014;47.690;9.130;2023-07-08T05:32:46;5.15;;;2.15;;
11907;SDS011;6014;47.690;9.130;2023-07-08T05:35:15;5.45;;;2.53;;
11907;SDS011;6014;47.690;9.130;2023-07-08T05:37:43;7.97;;;2.70;;
11907;SDS011;6014;47.690;9.130;2023-07-08T05:40:13;5.22;;;2.92;;
11907;SDS011;6014;47.690;9.130;2023-07-08T05:42:42;5.88;;;2.20;;
11907;SDS011;6014;47.690;9.130;2023-07-08T05:45:11;11.35;;;2.75;;
11907;SDS011;6014;47.690;9.130;2023-07-08T05:47:39;7.90;;;2.47;;
11907;SDS011;6014;47.690;9.130;2023-07-08T05:50:09;5.30;;;2.20;;
11907;SDS011;6014;47.690;9.130;2023-07-08T05:52:38;6.65;;;2.78;;
11907;SDS011;6014;47.690;9.130;2023-07-08T05:55:07;4.97;;;2.25;;
11907;SDS011;6014;47.690;9.130;2023-07-08T05:57:36;5.30;;;2.25;;
11907;SDS011;6014;47.690;9.130;2023-07-08T06:00:05;6.72;;;2.17;;
11907;SDS011;6014;47.690;9.130;2023-07-08T06:02:34;6.55;;;2.20;;
11907;SDS011;6014;47.690;9.130;2023-07-08T06:05:03;7.22;;;2.30;;
11907;SDS011;6014;47.690;9.130;2023-07-08T06:07:34;6.38;;;2.00;;
11907;SDS011;6014;47.690;9.130;2023-07-08T06:10:03;4.68;;;2.03;;
11907;SDS011;6014;47.690;9.130;2023-07-08T06:12:32;6.70;;;2.22;;
11907;SDS011;6014;47.690;9.130;2023-07-08T06:17:54;5.55;;;1.95;;
11907;SDS011;6014;47.690;9.130;2023-07-08T06:20:27;4.40;;;1.80;;
11907;SDS011;6014;47.690;9.130;2023-07-08T06:22:57;4.65;;;1.98;;
11907;SDS011;6014;47.690;9.130;2023-07-08T06:25:25;4.47;;;1.75;;
11907;SDS011;6014;47.690;9.130;2023-07-08T06:27:54;4.30;;;1.80;;
11907;SDS011;6014;47.690;9.130;2023-07-08T06:30:25;4.35;;;1.80;;
11907;SDS011;6014;47.690;9.130;2023-07-08T06:32:54;6.28;;;2.10;;
11907;SDS011;6014;47.690;9.130;2023-07-08T06:35:26;4.38;;;1.80;;
11907;SDS011;6014;47.690;9.130;2023-07-08T06:37:56;3.90;;;1.60;;
11907;SDS011;6014;47.690;9.130;2023-07-08T06:40:25;6.57;;;1.60;;
11907;SDS011;6014;47.690;9.130;2023-07-08T06:42:53;3.05;;;1.55;;
11907;SDS011;6014;47.690;9.130;2023-07-08T06:45:22;3.42;;;1.55;;
11907;SDS011;6014;47.690;9.130;2023-07-08T06:47:51;4.30;;;2.10;;
11907;SDS011;6014;47.690;9.130;2023-07-08T06:50:19;4.07;;;1.40;;
11907;SDS011;6014;47.690;9.130;2023-07-08T06:52:48;3.88;;;1.83;;
11907;SDS011;6014;47.690;9.130;2023-07-08T06:55:18;2.33;;;1.30;;
11907;SDS011;6014;47.690;9.130;2023-07-08T06:57:52;3.67;;;1.63;;
11907;SDS011;6014;47.690;9.130;2023-07-08T07:00:21;4.45;;;1.70;;
11907;SDS011;6014;47.690;9.130;2023-07-08T07:02:49;5.38;;;1.80;;
11907;SDS011;6014;47.690;9.130;2023-07-08T07:05:18;2.65;;;1.55;;
11907;SDS011;6014;47.690;9.130;2023-07-08T07:07:48;3.13;;;1.63;;
11907;SDS011;6014;47.690;9.130;2023-07-08T07:10:20;3.63;;;1.50;;
11907;SDS011;6014;47.690;9.130;2023-07-08T07:12:48;2.80;;;1.45;;
11907;SDS011;6014;47.690;9.130;2023-07-08T07:15:17;2.67;;;1.35;;
11907;SDS011;6014;47.690;9.130;2023-07-08T07:17:46;4.45;;;1.52;;
11907;SDS011;6014;47.690;9.130;2023-07-08T07:20:14;4.22;;;1.70;;
11907;SDS011;6014;47.690;9.130;2023-07-08T07:22:43;3.28;;;1.60;;
11907;SDS011;6014;47.690;9.130;2023-07-08T07:25:12;3.78;;;1.52;;
11907;SDS011;6014;47.690;9.130;2023-07-08T07:27:41;4.10;;;1.80;;
11907;SDS011;6014;47.690;9.130;2023-07-08T07:30:10;3.53;;;1.55;;
11907;SDS011;6014;47.690;9.130;2023-07-08T07:32:48;5.05;;;1.77;;
11907;SDS011;6014;47.690;9.130;2023-07-08T07:35:17;2.80;;;1.30;;
11907;SDS011;6014;47.690;9.130;2023-07-08T07:37:46;4.43;;;1.63;;
11907;SDS011;6014;47.690;9.130;2023-07-08T07:40:22;3.20;;;1.70;;
11907;SDS011;6014;47.690;9.130;2023-07-08T07:43:13;3.97;;;1.65;;
11907;SDS011;6014;47.690;9.130;2023-07-08T07:45:44;3.22;;;1.40;;
11907;SDS011;6014;47.690;9.130;2023-07-08T07:48:18;3.92;;;1.73;;
11907;SDS011;6014;47.690;9.130;2023-07-08T07:50:48;4.97;;;1.20;;
11907;SDS011;6014;47.690;9.130;2023-07-08T07:53:17;3.08;;;1.63;;
11907;SDS011;6014;47.690;9.130;2023-07-08T07:58:26;3.63;;;1.42;;
11907;SDS011;6014;47.690;9.130;2023-07-08T08:06:40;4.82;;;1.75;;
11907;SDS011;6014;47.690;9.130;2023-07-08T08:09:17;4.35;;;1.65;;
11907;SDS011;6014;47.690;9.130;2023-07-08T08:11:48;2.78;;;1.30;;
11907;SDS011;6014;47.690;9.130;2023-07-08T08:14:20;3.10;;;1.60;;
11907;SDS011;6014;47.690;9.130;2023-07-08T08:19:37;3.78;;;1.50;;
11907;SDS011;6014;47.690;9.130;2023-07-08T08:22:08;3.67;;;1.30;;
11907;SDS011;6014;47.690;9.130;2023-07-08T08:24:36;2.63;;;1.42;;
11907;SDS011;6014;47.690;9.130;2023-07-08T08:27:05;5.35;;;1.92;;
11907;SDS011;6014;47.690;9.130;2023-07-08T08:29:34;3.33;;;1.42;;
11907;SDS011;6014;47.690;9.130;2023-07-08T08:32:04;3.25;;;1.40;;
11907;SDS011;6014;47.690;9.130;2023-07-08T08:34:42;4.07;;;1.70;;
11907;SDS011;6014;47.690;9.130;2023-07-08T08:40:16;4.68;;;1.52;;
11907;SDS011;6014;47.690;9.130;2023-07-08T08:42:50;3.58;;;1.58;;
11907;SDS011;6014;47.690;9.130;2023-07-08T08:45:22;2.95;;;1.42;;
11907;SDS011;6014;47.690;9.130;2023-07-08T08:50:52;4.97;;;1.65;;
11907;SDS011;6014;47.690;9.130;2023-07-08T08:53:26;4.40;;;1.55;;
11907;SDS011;6014;47.690;9.130;2023-07-08T08:55:56;4.38;;;1.63;;
11907;SDS011;6014;47.690;9.130;2023-07-08T08:58:30;3.55;;;1.63;;
11907;SDS011;6014;47.690;9.130;2023-07-08T09:01:09;3.38;;;1.58;;
11907;SDS011;6014;47.690;9.130;2023-07-08T09:03:42;3.40;;;1.40;;
11907;SDS011;6014;47.690;9.130;2023-07-08T09:06:17;5.15;;;1.65;;
11907;SDS011;6014;47.690;9.130;2023-07-08T09:08:49;3.00;;;1.50;;
11907;SDS011;6014;47.690;9.130;2023-07-08T09:11:22;5.60;;;1.85;;
11907;SDS011;6014;47.690;9.130;2023-07-08T09:14:05;4.10;;;1.48;;
11907;SDS011;6014;47.690;9.130;2023-07-08T09:16:45;3.90;;;1.67;;
11907;SDS011;6014;47.690;9.130;2023-07-08T09:19:23;4.22;;;1.55;;
11907;SDS011;6014;47.690;9.130;2023-07-08T09:21:56;2.67;;;1.40;;
11907;SDS011;6014;47.690;9.130;2023-07-08T09:24:31;3.30;;;1.50;;
11907;SDS011;6014;47.690;9.130;2023-07-08T09:27:19;2.65;;;1.13;;
11907;SDS011;6014;47.690;9.130;2023-07-08T09:29:48;3.25;;;1.27;;
11907;SDS011;6014;47.690;9.130;2023-07-08T09:32:18;4.32;;;1.40;;
11907;SDS011;6014;47.690;9.130;2023-07-08T09:34:50;4.78;;;1.92;;
11907;SDS011;6014;47.690;9.130;2023-07-08T09:37:21;4.05;;;1.48;;
11907;SDS011;6014;47.690;9.130;2023-07-08T09:39:55;4.28;;;1.60;;
11907;SDS011;6014;47.690;9.130;2023-07-08T09:42:29;4.13;;;1.50;;
11907;SDS011;6014;47.690;9.130;2023-07-08T09:45:00;4.15;;;1.55;;
11907;SDS011;6014;47.690;9.130;2023-07-08T09:47:34;4.22;;;1.70;;
11907;SDS011;6014;47.690;9.130;2023-07-08T09:50:15;2.80;;;1.25;;
11907;SDS011;6014;47.690;9.130;2023-07-08T09:52:47;3.67;;;1.52;;
11907;SDS011;6014;47.690;9.130;2023-07-08T09:55:16;3.72;;;1.50;;
11907;SDS011;6014;47.690;9.130;2023-07-08T09:57:45;2.90;;;1.40;;
11907;SDS011;6014;47.690;9.130;2023-07-08T10:00:16;4.68;;;1.60;;
11907;SDS011;6014;47.690;9.130;2023-07-08T10:02:55;5.78;;;2.13;;
11907;SDS011;6014;47.690;9.130;2023-07-08T10:05:25;6.40;;;1.70;;
11907;SDS011;6014;47.690;9.130;2023-07-08T10:07:57;3.80;;;1.48;;
11907;SDS011;6014;47.690;9.130;2023-07-08T10:10:30;5.00;;;1.80;;
11907;SDS011;6014;47.690;9.130;2023-07-08T10:13:01;3.58;;;1.48;;
11907;SDS011;6014;47.690;9.130;2023-07-08T10:15:35;5.63;;;1.77;;
11907;SDS011;6014;47.690;9.130;2023-07-08T10:18:10;5.20;;;1.88;;
11907;SDS011;6014;47.690;9.130;2023-07-08T10:20:46;2.78;;;1.55;;
11907;SDS011;6014;47.690;9.130;2023-07-08T10:23:27;3.90;;;1.75;;
11907;SDS011;6014;47.690;9.130;2023-07-08T10:26:10;3.10;;;1.35;;
11907;SDS011;6014;47.690;9.130;2023-07-08T10:28:55;2.80;;;1.40;;
11907;SDS011;6014;47.690;9.130;2023-07-08T10:31:39;4.40;;;1.38;;
11907;SDS011;6014;47.690;9.130;2023-07-08T10:34:36;6.40;;;2.45;;
11907;SDS011;6014;47.690;9.130;2023-07-08T10:37:19;4.38;;;1.85;;
11907;SDS011;6014;47.690;9.130;2023-07-08T10:40:06;4.45;;;1.42;;
11907;SDS011;6014;47.690;9.130;2023-07-08T10:43:06;5.63;;;2.13;;
11907;SDS011;6014;47.690;9.130;2023-07-08T10:45:48;4.55;;;1.48;;
11907;SDS011;6014;47.690;9.130;2023-07-08T10:48:32;5.85;;;1.73;;
11907;SDS011;6014;47.690;9.130;2023-07-08T10:51:30;4.57;;;1.70;;
11907;SDS011;6014;47.690;9.130;2023-07-08T10:54:17;4.93;;;1.92;;
11907;SDS011;6014;47.690;9.130;2023-07-08T10:57:13;5.90;;;2.00;;
11907;SDS011;6014;47.690;9.130;2023-07-08T11:00:02;3.50;;;1.90;;
11907;SDS011;6014;47.690;9.130;2023-07-08T11:02:58;4.85;;;2.03;;
11907;SDS011;6014;47.690;9.130;2023-07-08T11:05:50;4.78;;;1.85;;
11907;SDS011;6014;47.690;9.130;2023-07-08T11:08:27;4.40;;;1.73;;
11907;SDS011;6014;47.690;9.130;2023-07-08T11:11:00;4.07;;;1.50;;
11907;SDS011;6014;47.690;9.130;2023-07-08T11:13:42;5.97;;;1.83;;
11907;SDS011;6014;47.690;9.130;2023-07-08T11:16:20;4.53;;;1.90;;
11907;SDS011;6014;47.690;9.130;2023-07-08T11:18:53;5.07;;;1.80;;
11907;SDS011;6014;47.690;9.130;2023-07-08T11:21:26;4.60;;;1.92;;
11907;SDS011;6014;47.690;9.130;2023-07-08T11:26:42;5.43;;;2.00;;
11907;SDS011;6014;47.690;9.130;2023-07-08T11:29:18;3.95;;;1.75;;
11907;SDS011;6014;47.690;9.130;2023-07-08T11:31:50;5.22;;;1.98;;
11907;SDS011;6014;47.690;9.130;2023-07-08T11:34:20;5.18;;;2.20;;
11907;SDS011;6014;47.690;9.130;2023-07-08T11:36:50;4.30;;;1.70;;
11907;SDS011;6014;47.690;9.130;2023-07-08T11:39:28;4.68;;;2.00;;
11907;SDS011;6014;47.690;9.130;2023-07-08T11:44:57;4.70;;;1.83;;
11907;SDS011;6014;47.690;9.130;2023-07-08T11:47:38;4.00;;;1.80;;
11907;SDS011;6014;47.690;9.130;2023-07-08T11:50:20;6.05;;;1.90;;
11907;SDS011;6014;47.690;9.130;2023-07-08T11:52:52;3.65;;;1.60;;
11907;SDS011;6014;47.690;9.130;2023-07-08T11:55:35;5.32;;;1.80;;
11907;SDS011;6014;47.690;9.130;2023-07-08T11:58:06;5.47;;;1.90;;
11907;SDS011;6014;47.690;9.130;2023-07-08T12:00:36;4.50;;;1.95;;
11907;SDS011;6014;47.690;9.130;2023-07-08T12:03:18;5.03;;;2.03;;
11907;SDS011;6014;47.690;9.130;2023-07-08T12:05:48;4.75;;;1.67;;
11907;SDS011;6014;47.690;9.130;2023-07-08T12:08:18;3.70;;;1.60;;
11907;SDS011;6014;47.690;9.130;2023-07-08T12:10:49;5.13;;;1.90;;
11907;SDS011;6014;47.690;9.130;2023-07-08T12:13:21;6.05;;;1.83;;
11907;SDS011;6014;47.690;9.130;2023-07-08T12:15:55;3.70;;;1.45;;
11907;SDS011;6014;47.690;9.130;2023-07-08T12:18:24;5.80;;;2.05;;
11907;SDS011;6014;47.690;9.130;2023-07-08T12:20:58;4.28;;;1.88;;
11907;SDS011;6014;47.690;9.130;2023-07-08T12:23:28;4.65;;;2.35;;
11907;SDS011;6014;47.690;9.130;2023-07-08T12:25:58;4.47;;;2.03;;
11907;SDS011;6014;47.690;9.130;2023-07-08T12:28:26;4.03;;;1.85;;
11907;SDS011;6014;47.690;9.130;2023-07-08T12:30:55;5.43;;;1.80;;
11907;SDS011;6014;47.690;9.130;2023-07-08T12:33:27;4.20;;;1.77;;
11907;SDS011;6014;47.690;9.130;2023-07-08T12:36:00;4.53;;;1.70;;
11907;SDS011;6014;47.690;9.130;2023-07-08T12:38:30;5.03;;;1.70;;
11907;SDS011;6014;47.690;9.130;2023-07-08T12:41:02;3.85;;;1.63;;
11907;SDS011;6014;47.690;9.130;2023-07-08T12:43:38;6.13;;;1.92;;
11907;SDS011;6014;47.690;9.130;2023-07-08T12:46:08;4.72;;;1.75;;
11907;SDS011;6014;47.690;9.130;2023-07-08T12:48:38;6.47;;;2.17;;
11907;SDS011;6014;47.690;9.130;2023-07-08T12:51:10;5.13;;;1.85;;
11907;SDS011;6014;47.690;9.130;2023-07-08T12:53:42;4.47;;;2.10;;
11907;SDS011;6014;47.690;9.130;2023-07-08T12:56:12;5.78;;;1.70;;
11907;SDS011;6014;47.690;9.130;2023-07-08T12:58:42;4.30;;;1.73;;
11907;SDS011;6014;47.690;9.130;2023-07-08T13:01:16;4.95;;;1.80;;
11907;SDS011;6014;47.690;9.130;2023-07-08T13:03:47;3.92;;;1.58;;
11907;SDS011;6014;47.690;9.130;2023-07-08T13:06:20;4.82;;;1.77;;
11907;SDS011;6014;47.690;9.130;2023-07-08T13:08:51;8.13;;;1.88;;
11907;SDS011;6014;47.690;9.130;2023-07-08T13:11:21;7.28;;;2.13;;
11907;SDS011;6014;47.690;9.130;2023-07-08T13:13:52;4.13;;;1.70;;
11907;SDS011;6014;47.690;9.130;2023-07-08T13:16:28;5.00;;;1.95;;
11907;SDS011;6014;47.690;9.130;2023-07-08T13:19:00;4.68;;;1.65;;
11907;SDS011;6014;47.690;9.130;2023-07-08T13:21:29;6.13;;;1.80;;
11907;SDS011;6014;47.690;9.130;2023-07-08T13:23:58;3.58;;;1.80;;
11907;SDS011;6014;47.690;9.130;2023-07-08T13:26:29;4.82;;;1.65;;
11907;SDS011;6014;47.690;9.130;2023-07-08T13:29:01;5.30;;;2.10;;
11907;SDS011;6014;47.690;9.130;2023-07-08T13:31:39;4.47;;;1.83;;
11907;SDS011;6014;47.690;9.130;2023-07-08T13:34:09;6.93;;;2.00;;
11907;SDS011;6014;47.690;9.130;2023-07-08T13:36:45;4.53;;;1.70;;
11907;SDS011;6014;47.690;9.130;2023-07-08T13:39:24;6.07;;;1.80;;
11907;SDS011;6014;47.690;9.130;2023-07-08T13:41:56;4.95;;;2.15;;
11907;SDS011;6014;47.690;9.130;2023-07-08T13:44:26;3.25;;;1.58;;
11907;SDS011;6014;47.690;9.130;2023-07-08T13:46:56;4.82;;;1.85;;
11907;SDS011;6014;47.690;9.130;2023-07-08T13:49:27;6.82;;;1.85;;
11907;SDS011;6014;47.690;9.130;2023-07-08T13:52:06;5.95;;;2.05;;
11907;SDS011;6014;47.690;9.130;2023-07-08T13:54:41;4.55;;;1.90;;
11907;SDS011;6014;47.690;9.130;2023-07-08T13:57:16;2.47;;;1.30;;
11907;SDS011;6014;47.690;9.130;2023-07-08T13:59:47;4.20;;;1.80;;
11907;SDS011;6014;47.690;9.130;2023-07-08T14:02:24;4.50;;;1.80;;
11907;SDS011;6014;47.690;9.130;2023-07-08T14:04:55;4.82;;;1.77;;
11907;SDS011;6014;47.690;9.130;2023-07-08T14:07:27;3.33;;;1.35;;
11907;SDS011;6014;47.690;9.130;2023-07-08T14:10:03;4.25;;;1.70;;
11907;SDS011;6014;47.690;9.130;2023-07-08T14:12:38;4.03;;;1.80;;
11907;SDS011;6014;47.690;9.130;2023-07-08T14:15:13;4.13;;;1.63;;
11907;SDS011;6014;47.690;9.130;2023-07-08T14:17:42;4.00;;;1.80;;
11907;SDS011;6014;47.690;9.130;2023-07-08T14:20:11;4.22;;;1.80;;
11907;SDS011;6014;47.690;9.130;2023-07-08T14:22:44;5.00;;;1.83;;
11907;SDS011;6014;47.690;9.130;2023-07-08T14:25:13;4.57;;;1.65;;
11907;SDS011;6014;47.690;9.130;2023-07-08T14:27:44;4.32;;;1.67;;
11907;SDS011;6014;47.690;9.130;2023-07-08T14:30:13;5.47;;;1.60;;
11907;SDS011;6014;47.690;9.130;2023-07-08T14:32:42;4.50;;;1.88;;
11907;SDS011;6014;47.690;9.130;2023-07-08T14:35:16;5.53;;;1.92;;
11907;SDS011;6014;47.690;9.130;2023-07-08T14:37:48;5.88;;;1.60;;
11907;SDS011;6014;47.690;9.130;2023-07-08T14:43:04;5.60;;;1.80;;
11907;SDS011;6014;47.690;9.130;2023-07-08T14:45:39;4.97;;;2.05;;
11907;SDS011;6014;47.690;9.130;2023-07-08T14:48:11;6.13;;;2.53;;
11907;SDS011;6014;47.690;9.130;2023-07-08T14:50:45;4.47;;;2.10;;
11907;SDS011;6014;47.690;9.130;2023-07-08T14:53:14;4.10;;;1.85;;
11907;SDS011;6014;47.690;9.130;2023-07-08T14:55:43;3.55;;;1.70;;
11907;SDS011;6014;47.690;9.130;2023-07-08T14:58:17;4.70;;;2.08;;
11907;SDS011;6014;47.690;9.130;2023-07-08T15:00:50;5.70;;;2.13;;
11907;SDS011;6014;47.690;9.130;2023-07-08T15:03:21;4.20;;;1.73;;
11907;SDS011;6014;47.690;9.130;2023-07-08T15:05:49;4.90;;;1.67;;
11907;SDS011;6014;47.690;9.130;2023-07-08T15:08:18;4.47;;;2.00;;
11907;SDS011;6014;47.690;9.130;2023-07-08T15:10:47;4.25;;;1.75;;
11907;SDS011;6014;47.690;9.130;2023-07-08T15:13:30;4.15;;;1.90;;
11907;SDS011;6014;47.690;9.130;2023-07-08T15:15:59;7.32;;;2.03;;
11907;SDS011;6014;47.690;9.130;2023-07-08T15:18:27;5.47;;;2.25;;
11907;SDS011;6014;47.690;9.130;2023-07-08T15:20:57;6.25;;;2.13;;
11907;SDS011;6014;47.690;9.130;2023-07-08T15:25:57;4.75;;;1.75;;
11907;SDS011;6014;47.690;9.130;2023-07-08T15:28:35;4.35;;;1.50;;
11907;SDS011;6014;47.690;9.130;2023-07-08T15:31:29;5.00;;;1.60;;
11907;SDS011;6014;47.690;9.130;2023-07-08T15:34:07;4.63;;;1.95;;
11907;SDS011;6014;47.690;9.130;2023-07-08T15:36:39;3.95;;;1.77;;
11907;SDS011;6014;47.690;9.130;2023-07-08T15:39:07;5.65;;;1.80;;
11907;SDS011;6014;47.690;9.130;2023-07-08T15:41:37;5.88;;;1.90;;
11907;SDS011;6014;47.690;9.130;2023-07-08T15:44:09;4.10;;;1.40;;
11907;SDS011;6014;47.690;9.130;2023-07-08T15:46:39;3.80;;;1.83;;
11907;SDS011;6014;47.690;9.130;2023-07-08T15:49:12;5.60;;;2.08;;
11907;SDS011;6014;47.690;9.130;2023-07-08T15:51:44;4.53;;;1.95;;
11907;SDS011;6014;47.690;9.130;2023-07-08T15:54:16;6.57;;;1.80;;
11907;SDS011;6014;47.690;9.130;2023-07-08T15:59:41;4.88;;;2.10;;
11907;SDS011;6014;47.690;9.130;2023-07-08T16:02:19;5.30;;;2.00;;
11907;SDS011;6014;47.690;9.130;2023-07-08T16:04:53;5.13;;;2.00;;
11907;SDS011;6014;47.690;9.130;2023-07-08T16:07:35;3.47;;;1.50;;
11907;SDS011;6014;47.690;9.130;2023-07-08T16:10:03;4.95;;;1.77;;
11907;SDS011;6014;47.690;9.130;2023-07-08T16:12:39;3.78;;;1.70;;
11907;SDS011;6014;47.690;9.130;2023-07-08T16:15:13;6.05;;;2.33;;
11907;SDS011;6014;47.690;9.130;2023-07-08T16:17:44;4.30;;;1.90;;